Time;durP1;ratioP1;P1;durP2;ratioP2;P2;SDS_P1;SDS_P2;PMS_P1;PMS_P2;Temp;Humidity;BMP_temperature;BMP_pressure;BME280_temperature;BME280_humidity;BME280_pressure;Samples;Min_cycle;Max_cycle;Signal;HPM_P1;HPM_P2
2022/05/18 00:02:04;;;;;;;3.10;2.17;;;15.30;68.30;;;;;;4990910;28;20042;-84
2022/05/18 00:04:30;;;;;;;2.70;2.38;;;15.30;68.30;;;;;;5005064;28;20054;-83
2022/05/18 00:06:56;;;;;;;2.45;2.22;;;15.30;68.30;;;;;;4983428;28;20636;-83
2022/05/18 00:09:22;;;;;;;2.30;2.08;;;15.30;68.20;;;;;;5000765;28;20034;-83
2022/05/18 00:11:49;;;;;;;4.20;2.25;;;15.30;68.10;;;;;;4991246;28;20087;-83
2022/05/18 00:14:15;;;;;;;3.08;2.38;;;15.30;68.10;;;;;;5000137;28;20038;-83
2022/05/18 00:16:42;;;;;;;3.08;2.55;;;15.30;68.10;;;;;;5023020;28;20096;-83
2022/05/18 00:19:07;;;;;;;2.88;2.08;;;15.30;68.00;;;;;;5004771;28;20034;-84
2022/05/18 00:21:33;;;;;;;2.97;2.33;;;15.20;67.90;;;;;;5008294;28;20033;-82
2022/05/18 00:24:00;;;;;;;6.78;2.03;;;15.30;67.80;;;;;;5009175;28;20057;-83
2022/05/18 00:26:26;;;;;;;2.50;2.30;;;15.30;67.90;;;;;;5008514;28;20038;-81
2022/05/18 00:28:52;;;;;;;3.22;2.03;;;15.20;67.80;;;;;;5007401;28;20087;-83
2022/05/18 00:31:19;;;;;;;1.77;1.67;;;15.20;67.60;;;;;;5023404;28;20026;-84
2022/05/18 00:33:48;;;;;;;2.80;1.83;;;15.10;67.60;;;;;;4990585;28;20480;-85
2022/05/18 00:36:14;;;;;;;3.85;2.13;;;15.10;67.50;;;;;;5007623;28;20034;-83
2022/05/18 00:38:40;;;;;;;3.35;1.80;;;15.10;67.50;;;;;;5007250;28;20084;-83
2022/05/18 00:41:06;;;;;;;3.22;2.05;;;15.10;67.40;;;;;;4973963;28;20046;-83
2022/05/18 00:43:32;;;;;;;2.53;1.80;;;15.10;67.50;;;;;;5013014;28;20107;-82
2022/05/18 00:46:01;;;;;;;1.73;1.63;;;15.10;67.30;;;;;;4995512;28;20568;-82
2022/05/18 00:48:27;;;;;;;1.95;1.70;;;15.10;67.40;;;;;;5029267;28;20088;-82
2022/05/18 00:50:55;;;;;;;1.95;1.75;;;15.10;67.30;;;;;;5014104;28;20046;-82
2022/05/18 00:53:41;;;;;;;3.35;1.70;;;15.10;67.20;;;;;;5011454;28;20038;-82
2022/05/18 00:56:13;;;;;;;2.35;1.85;;;15.10;67.00;;;;;;4991754;28;20133;-82
2022/05/18 00:58:56;;;;;;;1.88;1.60;;;15.00;67.00;;;;;;5007705;28;20128;-83
2022/05/18 01:01:23;;;;;;;1.60;1.50;;;15.00;67.10;;;;;;5008575;28;20101;-83
2022/05/18 01:03:52;;;;;;;2.58;1.55;;;15.00;67.00;;;;;;5008723;28;20033;-83
2022/05/18 01:06:32;;;;;;;2.85;1.80;;;15.00;66.90;;;;;;5007468;28;20042;-83
2022/05/18 01:09:18;;;;;;;2.25;1.63;;;15.00;66.90;;;;;;5007414;28;20034;-83
2022/05/18 01:11:45;;;;;;;1.75;1.50;;;15.00;66.80;;;;;;5001328;28;20025;-83
2022/05/18 01:14:16;;;;;;;2.95;1.80;;;15.00;66.80;;;;;;5015396;28;20040;-83
2022/05/18 01:16:42;;;;;;;2.10;1.60;;;15.00;66.80;;;;;;5000010;28;20029;-84
2022/05/18 01:19:19;;;;;;;3.15;1.65;;;15.00;66.70;;;;;;5023586;28;20719;-83
2022/05/18 01:21:54;;;;;;;1.67;1.58;;;14.90;66.70;;;;;;5008813;28;20030;-83
2022/05/18 01:24:38;;;;;;;3.75;1.45;;;14.90;66.70;;;;;;4991461;28;20034;-83
2022/05/18 01:27:05;;;;;;;2.08;1.50;;;14.90;66.70;;;;;;5023328;28;20041;-84
2022/05/18 01:29:32;;;;;;;1.70;1.60;;;14.90;66.70;;;;;;5015352;28;20049;-83
2022/05/18 01:32:00;;;;;;;1.98;1.77;;;14.90;66.60;;;;;;5008428;28;20045;-83
2022/05/18 01:34:31;;;;;;;1.52;1.30;;;14.90;66.60;;;;;;4985172;28;20042;-84
2022/05/18 01:36:57;;;;;;;1.58;1.48;;;14.90;66.60;;;;;;5022618;28;20523;-84
2022/05/18 01:39:38;;;;;;;3.67;1.40;;;14.90;66.50;;;;;;5006231;28;20095;-84
2022/05/18 01:42:17;;;;;;;2.15;1.40;;;14.90;66.60;;;;;;5005526;28;20408;-83
2022/05/18 01:44:43;;;;;;;3.00;1.40;;;14.80;66.60;;;;;;5005650;28;20042;-83
2022/05/18 01:47:09;;;;;;;3.03;1.58;;;14.80;66.70;;;;;;4997336;28;20125;-82
2022/05/18 01:49:37;;;;;;;1.33;1.23;;;14.80;66.50;;;;;;5007291;28;20437;-83
2022/05/18 01:52:04;;;;;;;1.30;1.20;;;14.90;66.40;;;;;;5009766;28;20032;-84
2022/05/18 01:54:36;;;;;;;2.55;1.45;;;14.80;66.20;;;;;;5009266;28;20575;-84
2022/05/18 01:57:02;;;;;;;2.22;1.30;;;14.80;66.20;;;;;;5014688;28;20034;-83
2022/05/18 01:59:28;;;;;;;1.33;1.20;;;14.90;66.10;;;;;;4993365;28;20042;-83
2022/05/18 02:01:54;;;;;;;2.13;1.30;;;14.80;66.20;;;;;;4977146;28;20038;-83
2022/05/18 02:04:20;;;;;;;1.38;1.13;;;14.80;66.20;;;;;;4995205;28;20096;-83
2022/05/18 02:06:46;;;;;;;2.00;1.33;;;14.80;66.00;;;;;;5009469;28;20046;-83
2022/05/18 02:09:16;;;;;;;4.53;1.52;;;14.80;66.00;;;;;;4991810;28;20764;-85
2022/05/18 02:11:42;;;;;;;1.67;1.15;;;14.80;65.80;;;;;;5006930;28;20208;-83
2022/05/18 02:14:09;;;;;;;3.75;1.17;;;14.80;65.80;;;;;;4989804;28;20450;-85
2022/05/18 02:16:36;;;;;;;0.98;0.98;;;14.80;65.70;;;;;;5005636;28;20042;-85
2022/05/18 02:19:02;;;;;;;2.50;1.20;;;14.80;65.90;;;;;;4973772;28;20038;-84
2022/05/18 02:21:28;;;;;;;2.33;1.27;;;14.90;65.90;;;;;;4990735;28;20026;-84
2022/05/18 02:23:54;;;;;;;2.22;0.90;;;15.00;65.70;;;;;;4994705;28;20030;-84
2022/05/18 02:26:21;;;;;;;2.90;1.17;;;15.10;65.70;;;;;;5005582;28;20068;-83
2022/05/18 02:28:48;;;;;;;1.20;1.10;;;15.10;65.60;;;;;;4989588;28;20084;-83
2022/05/18 02:31:14;;;;;;;2.30;1.10;;;15.20;65.60;;;;;;5004516;28;20425;-83
2022/05/18 02:33:40;;;;;;;1.33;0.77;;;15.30;65.50;;;;;;5005396;28;20559;-83
2022/05/18 02:36:08;;;;;;;1.00;0.82;;;15.40;65.40;;;;;;4998068;28;20022;-82
2022/05/18 02:38:38;;;;;;;1.77;0.70;;;15.40;65.20;;;;;;4981151;28;20058;-82
2022/05/18 02:41:04;;;;;;;2.08;0.82;;;15.50;65.10;;;;;;5005219;28;20037;-82
2022/05/18 02:43:31;;;;;;;2.55;1.08;;;15.70;65.60;;;;;;5004800;28;20501;-82
2022/05/18 02:46:08;;;;;;;1.08;0.75;;;15.80;64.80;;;;;;5005301;28;20042;-83
2022/05/18 02:48:35;;;;;;;1.60;0.90;;;15.80;64.50;;;;;;4988451;28;20041;-83
2022/05/18 02:51:02;;;;;;;1.25;0.90;;;15.90;64.40;;;;;;4981635;28;20057;-83
2022/05/18 02:53:28;;;;;;;0.98;0.70;;;16.00;64.30;;;;;;5004888;28;20113;-82
2022/05/18 02:56:06;;;;;;;1.73;1.00;;;16.00;64.30;;;;;;5005540;28;20132;-82
2022/05/18 02:58:39;;;;;;;3.05;1.05;;;16.00;64.40;;;;;;4988303;28;20038;-82
2022/05/18 03:01:07;;;;;;;1.17;0.90;;;16.00;64.10;;;;;;5005981;28;20030;-82
2022/05/18 03:03:35;;;;;;;1.42;1.30;;;16.00;63.80;;;;;;5007147;28;20037;-82
2022/05/18 03:06:03;;;;;;;1.10;0.93;;;16.00;63.60;;;;;;5006549;28;20121;-82
2022/05/18 03:08:32;;;;;;;1.33;0.93;;;16.00;63.50;;;;;;5013718;28;20037;-83
2022/05/18 03:10:59;;;;;;;3.47;1.10;;;16.00;63.40;;;;;;5007434;28;20034;-81
2022/05/18 03:13:25;;;;;;;1.40;0.93;;;16.00;63.30;;;;;;5012929;28;20030;-83
2022/05/18 03:15:51;;;;;;;2.00;0.90;;;16.00;63.10;;;;;;5000193;28;20034;-82
2022/05/18 03:18:17;;;;;;;1.40;0.90;;;16.00;63.00;;;;;;5007180;28;20476;-82
2022/05/18 03:23:34;;;;;;;3.17;1.00;;;16.00;62.90;;;;;;5006271;28;20038;-82
2022/05/18 03:26:15;;;;;;;2.17;1.08;;;16.00;62.90;;;;;;4991699;28;20289;-82
2022/05/18 03:28:43;;;;;;;2.38;0.95;;;16.00;63.00;;;;;;5026886;28;20037;-83
2022/05/18 03:31:10;;;;;;;2.50;0.65;;;15.90;63.00;;;;;;5044681;28;20037;-83
2022/05/18 03:33:37;;;;;;;1.60;0.93;;;15.90;62.90;;;;;;5040145;28;20041;-84
2022/05/18 03:36:06;;;;;;;1.17;0.70;;;15.90;62.80;;;;;;5014437;28;20088;-83
2022/05/18 03:38:32;;;;;;;0.75;0.60;;;15.90;62.80;;;;;;5014305;28;20046;-83
2022/05/18 03:40:58;;;;;;;1.85;0.70;;;16.00;62.90;;;;;;5009496;28;20121;-83
2022/05/18 03:43:24;;;;;;;1.77;0.60;;;16.00;63.20;;;;;;4975600;28;20026;-84
2022/05/18 03:45:50;;;;;;;1.55;0.70;;;16.10;63.20;;;;;;5026752;28;20046;-84
2022/05/18 03:48:18;;;;;;;3.33;1.40;;;16.20;63.00;;;;;;5009385;28;20061;-83
2022/05/18 03:50:47;;;;;;;0.70;0.70;;;16.40;62.80;;;;;;4999878;28;20034;-84
2022/05/18 03:53:13;;;;;;;1.27;0.68;;;16.50;62.40;;;;;;4988783;28;20062;-82
2022/05/18 03:55:41;;;;;;;0.60;0.60;;;16.70;62.20;;;;;;4988244;28;20130;-85
2022/05/18 03:58:09;;;;;;;2.55;0.90;;;16.80;62.00;;;;;;4998216;28;20073;-84
2022/05/18 04:00:36;;;;;;;1.85;0.70;;;17.00;61.90;;;;;;5004724;28;20833;-78
2022/05/18 04:03:03;;;;;;;0.93;0.82;;;17.10;61.70;;;;;;5005458;28;20068;-81
2022/05/18 04:05:30;;;;;;;0.73;0.50;;;17.20;61.60;;;;;;5005229;28;20042;-77
2022/05/18 04:07:56;;;;;;;0.60;0.60;;;17.40;61.60;;;;;;5004744;28;20075;-78
2022/05/18 04:10:22;;;;;;;1.75;0.70;;;17.50;61.40;;;;;;5004558;28;20034;-76
2022/05/18 04:12:52;;;;;;;3.50;0.70;;;17.60;61.30;;;;;;5005048;28;20038;-78
2022/05/18 04:15:18;;;;;;;0.80;0.52;;;17.70;61.10;;;;;;5020405;28;20148;-76
2022/05/18 04:17:46;;;;;;;2.05;0.60;;;17.90;61.10;;;;;;5005274;28;20037;-79
2022/05/18 04:20:14;;;;;;;0.70;0.55;;;18.00;61.00;;;;;;5008309;28;20548;-78
2022/05/18 04:22:41;;;;;;;1.02;0.80;;;18.10;60.80;;;;;;5007284;28;20038;-80
2022/05/18 04:25:09;;;;;;;0.70;0.50;;;18.20;60.70;;;;;;5005994;28;20045;-80
2022/05/18 04:27:35;;;;;;;0.75;0.75;;;18.30;60.50;;;;;;5008684;28;20038;-80
2022/05/18 04:30:01;;;;;;;1.10;0.80;;;18.50;60.50;;;;;;5009390;28;20034;-81
2022/05/18 04:32:27;;;;;;;0.50;0.50;;;18.60;60.30;;;;;;5008624;28;20040;-80
2022/05/18 04:34:53;;;;;;;1.00;1.00;;;18.70;60.20;;;;;;5009482;28;20401;-82
2022/05/18 04:37:19;;;;;;;1.52;0.50;;;18.90;60.10;;;;;;5007439;28;20026;-83
2022/05/18 04:39:45;;;;;;;0.60;0.60;;;18.90;60.00;;;;;;5008982;28;20065;-82
2022/05/18 04:42:13;;;;;;;1.02;0.80;;;19.10;59.90;;;;;;5007652;28;20389;-82
2022/05/18 04:44:40;;;;;;;0.98;0.70;;;19.20;59.90;;;;;;5007958;28;20046;-82
2022/05/18 04:47:07;;;;;;;0.60;0.60;;;19.30;59.70;;;;;;5006029;28;20095;-83
2022/05/18 04:49:33;;;;;;;2.97;0.73;;;19.40;59.70;;;;;;5008368;28;20452;-80
2022/05/18 04:52:01;;;;;;;1.15;0.45;;;19.50;59.60;;;;;;5006793;28;20736;-82
2022/05/18 04:54:27;;;;;;;1.67;0.65;;;19.60;59.50;;;;;;5006192;28;20037;-83
2022/05/18 04:56:53;;;;;;;1.20;0.60;;;19.70;59.50;;;;;;5007364;28;20041;-89
2022/05/18 04:59:19;;;;;;;0.65;0.60;;;19.80;59.40;;;;;;5007535;28;20041;-85
2022/05/18 05:01:45;;;;;;;3.45;0.75;;;19.90;59.80;;;;;;5006796;28;20048;-82
2022/05/18 05:04:13;;;;;;;0.60;0.60;;;20.10;58.50;;;;;;5008108;28;20045;-80
2022/05/18 05:06:40;;;;;;;2.38;1.63;;;20.20;57.40;;;;;;5007421;28;20566;-80
2022/05/18 05:09:07;;;;;;;4.70;2.30;;;20.30;56.60;;;;;;5008772;28;20031;-86
2022/05/18 05:11:33;;;;;;;2.58;2.22;;;20.40;55.80;;;;;;5000332;28;20180;-84
2022/05/18 05:13:59;;;;;;;4.18;2.10;;;20.50;55.40;;;;;;5007889;28;20046;-83
2022/05/18 05:16:29;;;;;;;2.13;1.63;;;20.50;55.20;;;;;;4975990;28;20064;-80
2022/05/18 05:18:57;;;;;;;4.03;1.58;;;20.60;54.70;;;;;;5007818;28;20461;-81
2022/05/18 05:21:23;;;;;;;1.45;1.23;;;20.80;53.90;;;;;;5006745;28;20092;-80
2022/05/18 05:23:48;;;;;;;1.65;0.90;;;20.80;53.00;;;;;;5014464;28;20501;-81
2022/05/18 05:26:15;;;;;;;2.63;0.93;;;20.90;53.00;;;;;;5019824;28;20046;-80
2022/05/18 05:28:42;;;;;;;3.67;0.77;;;21.00;52.10;;;;;;5015393;28;20416;-81
2022/05/18 05:31:10;;;;;;;2.03;0.80;;;21.10;51.80;;;;;;5013478;28;20037;-81
2022/05/18 05:33:38;;;;;;;1.80;0.70;;;21.20;51.70;;;;;;5022045;28;20033;-81
2022/05/18 05:36:05;;;;;;;1.98;0.80;;;21.30;51.30;;;;;;5008030;28;20026;-81
2022/05/18 05:38:31;;;;;;;0.60;0.60;;;21.30;51.00;;;;;;5007031;28;20046;-81
2022/05/18 05:41:00;;;;;;;1.92;0.85;;;21.30;50.90;;;;;;5007040;28;20066;-81
2022/05/18 05:43:26;;;;;;;1.08;0.70;;;21.40;50.90;;;;;;5006305;28;20041;-81
2022/05/18 05:46:13;;;;;;;0.70;0.63;;;21.50;50.90;;;;;;5007262;28;20049;-81
2022/05/18 05:48:42;;;;;;;3.58;0.77;;;21.60;50.70;;;;;;5006173;28;20049;-81
2022/05/18 05:51:15;;;;;;;1.67;0.90;;;21.70;50.90;;;;;;5007477;28;20409;-81
2022/05/18 05:53:46;;;;;;;10.38;6.25;;;21.80;51.00;;;;;;5006759;28;20079;-81
2022/05/18 05:56:15;;;;;;;7.97;3.38;;;21.80;50.50;;;;;;5006426;28;20048;-82
2022/05/18 05:58:43;;;;;;;3.75;2.45;;;21.90;50.20;;;;;;5006872;28;20120;-80
2022/05/18 06:01:12;;;;;;;2.65;2.20;;;21.90;49.90;;;;;;5005192;28;20037;-79
2022/05/18 06:03:39;;;;;;;3.58;1.60;;;22.00;50.00;;;;;;5009544;28;20037;-81
2022/05/18 06:06:06;;;;;;;2.05;1.20;;;22.10;49.70;;;;;;5007206;28;20607;-80
2022/05/18 06:08:32;;;;;;;4.47;1.00;;;22.10;49.50;;;;;;5005395;28;20049;-80
2022/05/18 06:10:59;;;;;;;4.72;1.20;;;22.10;49.40;;;;;;5004763;28;20077;-82
2022/05/18 06:13:27;;;;;;;3.70;1.10;;;22.20;48.40;;;;;;5005342;28;20058;-81
2022/05/18 06:15:53;;;;;;;1.50;0.98;;;22.20;48.70;;;;;;5006144;28;26447;-81
2022/05/18 06:18:19;;;;;;;2.38;0.80;;;22.20;48.80;;;;;;5005454;28;20446;-80
2022/05/18 06:20:47;;;;;;;1.58;0.90;;;22.10;48.10;;;;;;5007445;28;20041;-82
2022/05/18 06:23:14;;;;;;;0.80;0.80;;;22.00;47.50;;;;;;5006403;28;20033;-81
2022/05/18 06:25:41;;;;;;;2.65;0.70;;;22.10;47.80;;;;;;5006233;28;20034;-81
2022/05/18 06:28:09;;;;;;;0.85;0.80;;;22.10;47.90;;;;;;5005411;28;20055;-81
2022/05/18 06:30:36;;;;;;;1.50;0.47;;;22.20;47.90;;;;;;5005287;28;20389;-81
2022/05/18 06:33:03;;;;;;;0.57;0.57;;;22.10;46.40;;;;;;4993700;28;20030;-82
2022/05/18 06:35:29;;;;;;;1.40;0.40;;;22.00;45.90;;;;;;5015692;28;20034;-81
2022/05/18 06:37:55;;;;;;;2.28;0.50;;;22.00;45.70;;;;;;5028821;28;20141;-81
2022/05/18 06:41:21;;;;;;;1.00;0.40;;;22.10;45.70;;;;;;5008467;28;20034;-81
2022/05/18 06:43:08;;;;;;;0.47;0.40;;;22.10;45.50;;;;;;5005242;28;20038;-80
2022/05/18 06:45:34;;;;;;;1.58;0.57;;;22.00;45.10;;;;;;5006832;28;20085;-80
2022/05/18 06:48:00;;;;;;;1.75;0.50;;;22.00;45.20;;;;;;5007147;28;20563;-81
2022/05/18 06:50:27;;;;;;;1.75;0.50;;;22.00;45.20;;;;;;5006307;28;20068;-81
2022/05/18 06:52:53;;;;;;;0.82;0.47;;;22.00;45.30;;;;;;5006816;28;20033;-80
2022/05/18 06:55:19;;;;;;;1.42;0.47;;;22.00;45.40;;;;;;5005928;28;20034;-81
2022/05/18 06:57:45;;;;;;;2.45;0.50;;;21.90;45.10;;;;;;5004553;28;20030;-81
2022/05/18 07:00:12;;;;;;;1.42;0.45;;;21.70;44.90;;;;;;5005999;28;20041;-81
2022/05/18 07:02:38;;;;;;;2.78;0.63;;;21.60;45.10;;;;;;5006765;28;20393;-81
2022/05/18 07:05:04;;;;;;;5.72;0.80;;;21.50;44.80;;;;;;5006795;28;20455;-81
2022/05/18 07:07:30;;;;;;;2.03;0.50;;;21.50;44.90;;;;;;5006649;28;20030;-80
2022/05/18 07:09:56;;;;;;;1.02;0.50;;;21.50;44.80;;;;;;5005349;28;20072;-82
2022/05/18 07:12:22;;;;;;;1.15;0.70;;;21.40;44.70;;;;;;5006683;28;20062;-81
2022/05/18 07:14:48;;;;;;;2.33;0.70;;;21.30;44.80;;;;;;5005505;28;20040;-84
2022/05/18 07:17:14;;;;;;;0.70;0.40;;;21.20;44.80;;;;;;5006491;28;20121;-82
2022/05/18 07:19:40;;;;;;;1.08;0.50;;;21.00;44.50;;;;;;5005748;28;20046;-83
2022/05/18 07:22:06;;;;;;;0.88;0.70;;;21.00;45.60;;;;;;5012506;28;20128;-82
2022/05/18 07:24:32;;;;;;;3.35;0.60;;;21.00;45.40;;;;;;5007345;28;20076;-82
2022/05/18 07:26:58;;;;;;;1.45;0.50;;;21.10;45.30;;;;;;5005101;28;20136;-83
2022/05/18 07:29:24;;;;;;;3.53;0.50;;;21.10;45.70;;;;;;4988624;28;20127;-83
2022/05/18 07:32:08;;;;;;;4.15;0.68;;;21.10;45.40;;;;;;4982059;28;20034;-82
2022/05/18 07:34:35;;;;;;;2.67;0.60;;;21.20;45.20;;;;;;5006653;28;20483;-83
2022/05/18 07:37:02;;;;;;;2.35;0.60;;;21.20;45.10;;;;;;5006353;28;20049;-83
2022/05/18 07:39:28;;;;;;;0.80;0.40;;;21.10;44.40;;;;;;5005807;28;20034;-83
2022/05/18 07:41:55;;;;;;;1.75;0.63;;;21.00;44.30;;;;;;5009845;28;20038;-83
2022/05/18 07:44:22;;;;;;;2.50;0.50;;;21.00;44.40;;;;;;5027963;28;20042;-83
2022/05/18 07:46:48;;;;;;;0.70;0.60;;;20.90;44.40;;;;;;5028020;28;20014;-83
2022/05/18 07:49:14;;;;;;;0.35;0.30;;;20.80;44.30;;;;;;5026889;28;20040;-82
2022/05/18 07:51:40;;;;;;;3.97;0.68;;;20.70;44.20;;;;;;4990192;28;20033;-83
2022/05/18 07:54:07;;;;;;;0.55;0.50;;;20.70;44.40;;;;;;5013299;28;20121;-85
2022/05/18 07:56:35;;;;;;;1.02;0.40;;;20.70;44.30;;;;;;4995436;28;20033;-85
2022/05/18 07:59:06;;;;;;;0.75;0.40;;;20.60;44.40;;;;;;4971461;28;20045;-85
2022/05/18 08:01:34;;;;;;;0.57;0.43;;;20.60;44.00;;;;;;5006719;28;20052;-85
2022/05/18 08:04:00;;;;;;;0.63;0.40;;;20.60;45.00;;;;;;4987514;28;20054;-84
2022/05/18 08:06:27;;;;;;;2.08;0.50;;;20.60;44.40;;;;;;4998327;28;20123;-84
2022/05/18 08:08:55;;;;;;;4.85;3.95;;;20.60;44.40;;;;;;5004220;28;20033;-81
2022/05/18 08:16:50;;;;;;;2.25;0.98;;;20.60;44.80;;;;;;4999802;28;20034;-83
2022/05/18 08:19:17;;;;;;;1.90;0.73;;;20.50;44.40;;;;;;4999251;28;20599;-83
2022/05/18 08:21:44;;;;;;;1.33;0.60;;;20.50;43.60;;;;;;5008465;28;20409;-83
2022/05/18 08:24:11;;;;;;;1.67;0.63;;;20.40;43.40;;;;;;5009752;28;20033;-84
2022/05/18 08:26:37;;;;;;;2.38;0.52;;;20.40;43.20;;;;;;4999845;28;20039;-82
2022/05/18 08:29:05;;;;;;;0.45;0.40;;;20.30;43.40;;;;;;5004299;28;20065;-82
2022/05/18 08:31:31;;;;;;;1.90;0.60;;;20.30;44.00;;;;;;5008557;28;20029;-84
2022/05/18 08:33:57;;;;;;;1.50;0.60;;;20.30;44.40;;;;;;5029302;28;20113;-84
2022/05/18 08:36:26;;;;;;;2.42;0.60;;;20.30;45.00;;;;;;5001751;28;20041;-84
2022/05/18 08:38:54;;;;;;;0.98;0.40;;;20.30;45.20;;;;;;5007344;28;20611;-83
2022/05/18 08:41:28;;;;;;;1.10;0.50;;;20.30;44.90;;;;;;5006768;28;20041;-83
2022/05/18 08:43:58;;;;;;;0.90;0.57;;;20.20;44.30;;;;;;5021194;28;20038;-83
2022/05/18 08:46:44;;;;;;;1.80;0.38;;;20.20;44.40;;;;;;5006993;28;20050;-83
2022/05/18 08:49:18;;;;;;;;;;;20.20;45.10;;;;;;5009108;28;20536;-82
2022/05/18 08:52:08;;;;;;;1.95;0.57;;;20.20;45.10;;;;;;5014115;28;19913;-81
2022/05/18 08:54:50;;;;;;;1.75;0.40;;;20.10;44.90;;;;;;5023091;28;20032;-81
2022/05/18 08:57:23;;;;;;;3.72;0.82;;;20.10;44.70;;;;;;5012920;28;20044;-80
2022/05/18 08:59:57;;;;;;;0.80;0.60;;;20.10;45.10;;;;;;5012429;28;20026;-82
2022/05/18 09:02:32;;;;;;;0.80;0.43;;;20.10;45.20;;;;;;5003700;28;20080;-80
2022/05/18 09:05:03;;;;;;;2.30;0.47;;;20.10;45.50;;;;;;5007697;28;20505;-81
2022/05/18 09:07:38;;;;;;;2.55;0.65;;;20.10;45.40;;;;;;5022848;28;20038;-83
2022/05/18 09:10:12;;;;;;;0.77;0.60;;;20.00;45.40;;;;;;5005921;28;20186;-81
2022/05/18 09:12:41;;;;;;;1.30;0.50;;;20.00;45.30;;;;;;5007021;28;20083;-83
2022/05/18 09:15:10;;;;;;;6.03;0.80;;;20.00;45.20;;;;;;5015743;28;20030;-82
2022/05/18 09:17:54;;;;;;;5.07;0.68;;;20.00;45.60;;;;;;5009176;28;20513;-84
2022/05/18 09:20:25;;;;;;;1.95;0.50;;;20.00;46.20;;;;;;5007311;28;20041;-82
2022/05/18 09:23:08;;;;;;;1.42;0.60;;;20.00;45.90;;;;;;5005544;28;20042;-88
2022/05/18 09:26:08;;;;;;;2.92;0.57;;;20.00;45.90;;;;;;5004135;28;20038;-83
2022/05/18 09:28:51;;;;;;;5.65;0.60;;;19.90;45.70;;;;;;5006562;28;20532;-82
2022/05/18 09:31:40;;;;;;;0.82;0.60;;;19.90;45.10;;;;;;5007027;28;20069;-82
2022/05/18 09:34:33;;;;;;;1.80;0.60;;;19.90;45.60;;;;;;5007143;28;20038;-82
2022/05/18 09:37:06;;;;;;;5.03;0.60;;;19.90;45.00;;;;;;5006880;28;20512;-83
2022/05/18 09:39:39;;;;;;;1.25;0.60;;;19.80;45.30;;;;;;5006912;28;20034;-83
2022/05/18 09:42:11;;;;;;;1.25;0.50;;;19.90;45.50;;;;;;5005027;28;20038;-81
2022/05/18 09:45:06;;;;;;;0.65;0.45;;;19.80;45.10;;;;;;5006728;28;20543;-82
2022/05/18 09:47:40;;;;;;;2.15;0.50;;;19.80;45.00;;;;;;4979431;28;20045;-82
2022/05/18 09:50:08;;;;;;;1.63;0.70;;;19.80;45.30;;;;;;5007139;28;20049;-82
2022/05/18 09:52:37;;;;;;;5.03;1.80;;;19.70;45.60;;;;;;5007851;28;20057;-82
2022/05/18 09:55:07;;;;;;;2.97;1.60;;;19.70;46.30;;;;;;4989682;28;20038;-81
2022/05/18 09:57:43;;;;;;;4.28;1.40;;;19.80;46.90;;;;;;5007400;28;20026;-82
2022/05/18 10:00:22;;;;;;;2.35;1.40;;;19.80;47.20;;;;;;5007073;28;20036;-82
2022/05/18 10:07:27;;;;;;;3.30;1.00;;;19.80;47.30;;;;;;5022453;28;20041;-82
2022/05/18 10:08:43;;;;;;;1.80;0.52;;;19.80;46.20;;;;;;5020231;28;20041;-82
2022/05/18 10:11:17;;;;;;;0.85;0.70;;;19.70;45.60;;;;;;5007636;28;20535;-82
2022/05/18 10:14:06;;;;;;;2.05;0.50;;;19.80;45.70;;;;;;5021102;28;20030;-82
2022/05/18 10:16:48;;;;;;;3.42;0.60;;;19.70;45.90;;;;;;5006032;28;20120;-82
2022/05/18 10:19:28;;;;;;;1.83;0.70;;;19.70;46.50;;;;;;5006299;28;20128;-81
2022/05/18 10:22:06;;;;;;;1.80;0.60;;;19.70;46.60;;;;;;5004817;28;20057;-82
2022/05/18 10:24:36;;;;;;;2.20;0.60;;;19.70;46.40;;;;;;5005325;28;20029;-82
2022/05/18 10:27:21;;;;;;;2.22;0.60;;;19.70;46.10;;;;;;5006215;28;20092;-82
2022/05/18 10:30:02;;;;;;;3.00;0.77;;;19.70;46.00;;;;;;5006674;28;20026;-83
2022/05/18 10:32:31;;;;;;;3.15;0.85;;;19.70;45.90;;;;;;5006295;28;20034;-81
2022/05/18 10:34:59;;;;;;;0.85;0.75;;;19.70;46.20;;;;;;5006263;28;20037;-82
2022/05/18 10:37:37;;;;;;;1.13;0.70;;;19.70;45.70;;;;;;5005737;28;20424;-81
2022/05/18 10:40:19;;;;;;;3.92;0.70;;;19.70;46.00;;;;;;5005248;28;20038;-82
2022/05/18 10:42:47;;;;;;;2.03;0.80;;;19.70;46.80;;;;;;5002801;28;20393;-82
2022/05/18 10:45:25;;;;;;;0.95;0.57;;;19.80;46.40;;;;;;5005721;28;20042;-83
2022/05/18 10:47:57;;;;;;;3.03;0.90;;;19.80;45.90;;;;;;5006075;28;20038;-82
2022/05/18 10:50:37;;;;;;;1.83;0.63;;;19.80;46.30;;;;;;5004907;28;20689;-81
2022/05/18 10:53:12;;;;;;;1.95;0.80;;;19.80;46.30;;;;;;5005813;28;20458;-82
2022/05/18 10:55:58;;;;;;;1.02;0.50;;;19.80;45.60;;;;;;5006009;28;20729;-82
2022/05/18 10:58:35;;;;;;;1.40;0.80;;;19.80;46.30;;;;;;4996643;28;20041;-82
2022/05/18 11:01:13;;;;;;;2.17;0.90;;;19.80;46.80;;;;;;5005295;28;20034;-82
2022/05/18 11:03:51;;;;;;;0.75;0.68;;;19.80;46.80;;;;;;5005524;28;20068;-81
2022/05/18 11:06:23;;;;;;;1.20;0.65;;;19.80;46.60;;;;;;5005329;28;20065;-82
2022/05/18 11:08:50;;;;;;;2.00;0.93;;;19.90;46.80;;;;;;5005621;28;20104;-81
2022/05/18 11:11:34;;;;;;;2.58;0.93;;;19.80;46.60;;;;;;5008439;28;20045;-81
2022/05/18 11:14:06;;;;;;;0.60;0.60;;;19.80;46.40;;;;;;5022849;28;20034;-83
2022/05/18 11:16:55;;;;;;;0.90;0.47;;;19.90;46.60;;;;;;5021970;28;20042;-82
2022/05/18 11:19:32;;;;;;;1.13;0.77;;;19.90;46.50;;;;;;4980659;28;20138;-82
2022/05/18 11:22:04;;;;;;;0.73;0.73;;;19.80;46.60;;;;;;4984601;28;20157;-81
2022/05/18 11:24:42;;;;;;;1.40;0.77;;;19.90;46.50;;;;;;4983982;28;20038;-82
2022/05/18 11:27:25;;;;;;;3.22;0.82;;;19.80;46.50;;;;;;4984092;28;20145;-81
2022/05/18 11:30:02;;;;;;;1.08;0.70;;;19.80;46.20;;;;;;4964332;28;20085;-81
2022/05/18 11:32:54;;;;;;;1.88;0.60;;;19.80;46.10;;;;;;4983667;28;20617;-82
2022/05/18 11:35:52;;;;;;;1.77;0.82;;;19.80;45.70;;;;;;4983847;28;20133;-80
2022/05/18 11:38:51;;;;;;;1.20;0.57;;;19.80;46.00;;;;;;4888671;29;20056;-83
2022/05/18 11:41:37;;;;;;;2.55;0.88;;;19.80;46.60;;;;;;4888825;29;20495;-82
2022/05/18 11:44:12;;;;;;;4.65;0.90;;;19.80;46.20;;;;;;4887920;29;20131;-81
2022/05/18 11:47:02;;;;;;;0.60;0.60;;;19.80;46.20;;;;;;4891104;29;20076;-81
2022/05/18 11:49:53;;;;;;;2.75;0.60;;;19.80;45.90;;;;;;4892290;29;20045;-82
2022/05/18 11:52:28;;;;;;;3.95;0.70;;;19.80;45.60;;;;;;4894789;29;20070;-82
2022/05/18 11:55:15;;;;;;;0.60;0.47;;;19.80;45.70;;;;;;4892316;29;20486;-81
2022/05/18 11:57:53;;;;;;;4.13;0.90;;;19.80;45.90;;;;;;4929294;29;20043;-82
2022/05/18 12:00:51;;;;;;;2.20;0.80;;;19.80;45.70;;;;;;4913336;29;20079;-81
2022/05/18 12:03:44;;;;;;;1.63;0.80;;;19.80;45.80;;;;;;4925522;29;20055;-81
2022/05/18 12:06:43;;;;;;;3.90;1.08;;;19.80;46.20;;;;;;4928855;29;20040;-82
2022/05/18 12:09:24;;;;;;;1.77;0.70;;;19.80;45.90;;;;;;4912684;29;20044;-80
2022/05/18 12:12:02;;;;;;;5.05;1.10;;;19.80;45.70;;;;;;4930211;29;20586;-82
2022/05/18 12:14:40;;;;;;;1.75;1.00;;;19.80;45.70;;;;;;4941196;28;20491;-82
2022/05/18 12:17:27;;;;;;;2.22;0.88;;;19.90;44.90;;;;;;5002828;28;20132;-82
2022/05/18 12:20:05;;;;;;;3.33;0.80;;;19.80;44.50;;;;;;5010546;28;20029;-82
2022/05/18 12:22:36;;;;;;;3.10;1.25;;;19.80;44.10;;;;;;5021391;28;20068;-82
2022/05/18 12:25:03;;;;;;;3.25;0.73;;;19.80;44.30;;;;;;5027582;28;20371;-81
2022/05/18 12:27:30;;;;;;;1.75;0.80;;;19.80;44.60;;;;;;5032144;28;20113;-82
2022/05/18 12:30:01;;;;;;;3.88;0.75;;;19.80;44.50;;;;;;5019852;28;20033;-81
2022/05/18 12:32:27;;;;;;;1.27;0.80;;;19.80;44.10;;;;;;5009042;28;20034;-82
2022/05/18 12:35:11;;;;;;;1.75;0.70;;;19.80;43.90;;;;;;5007912;28;20050;-81
2022/05/18 12:37:53;;;;;;;4.85;1.20;;;19.70;43.50;;;;;;5009525;28;20034;-81
2022/05/18 12:40:33;;;;;;;2.67;0.80;;;19.70;43.20;;;;;;5008798;28;20041;-79
2022/05/18 12:43:33;;;;;;;1.38;0.90;;;19.80;43.00;;;;;;5008682;28;20037;-81
2022/05/18 12:46:10;;;;;;;1.58;0.70;;;19.70;43.00;;;;;;5013355;28;20066;-81
2022/05/18 12:48:38;;;;;;;2.88;0.65;;;19.70;43.30;;;;;;5015989;28;20567;-80
2022/05/18 12:51:31;;;;;;;1.05;0.80;;;19.70;42.90;;;;;;5009051;28;20021;-81
2022/05/18 12:54:09;;;;;;;3.67;0.98;;;19.70;43.40;;;;;;5008477;28;20592;-81
2022/05/18 12:56:35;;;;;;;3.10;0.70;;;19.70;43.80;;;;;;5007760;28;20065;-82
2022/05/18 12:59:09;;;;;;;2.03;0.80;;;19.70;44.10;;;;;;5007666;28;21285;-81
2022/05/18 13:01:43;;;;;;;2.10;0.95;;;19.70;43.90;;;;;;5008417;28;20450;-81
2022/05/18 13:04:09;;;;;;;1.25;0.93;;;19.70;44.10;;;;;;5007970;28;20556;-81
2022/05/18 13:06:35;;;;;;;3.17;0.73;;;19.70;44.00;;;;;;5008489;28;20065;-81
2022/05/18 13:09:35;;;;;;;4.35;0.95;;;19.70;43.70;;;;;;5008872;28;20408;-80
2022/05/18 13:12:22;;;;;;;1.02;0.70;;;19.70;43.40;;;;;;5008420;28;20053;-81
2022/05/18 13:15:25;;;;;;;2.95;0.77;;;19.60;43.60;;;;;;5006574;28;20042;-81
2022/05/18 13:17:56;;;;;;;2.35;0.75;;;19.60;43.90;;;;;;5008446;28;20084;-82
2022/05/18 13:20:22;;;;;;;1.95;0.70;;;19.60;43.80;;;;;;5007469;28;20038;-81
2022/05/18 13:22:58;;;;;;;2.42;0.90;;;19.50;44.00;;;;;;5008658;28;20382;-81